Terminal Aerodrome Forecast
Issued by NWS Mt. Holly, NJ

Home | Current Version | Previous Version | Text Only | Print | Product List | Glossary On
Versions: 1 2 3 4 5 6 7 8 9 10 11 12 13 14 15 16 17 18 19 20 21
000
FTUS41 KPHI 271125
TAFTTN
TAF
KTTN 271125Z 2712/2812 34010KT P6SM SCT015 BKN080
      TEMPO 2712/2714 -RA OVC015
     FM271400 34008G16KT P6SM BKN045
     FM280000 35010KT P6SM SCT045 BKN100=

USA.gov is the U.S. government's official web portal to all federal, state and local government web resources and services.